Time;durP1;ratioP1;P1;durP2;ratioP2;P2;SDS_P1;SDS_P2;PMS_P1;PMS_P2;Temp;Humidity;BMP_temperature;BMP_pressure;BME280_temperature;BME280_humidity;BME280_pressure;Samples;Min_cycle;Max_cycle;Signal;HPM_P1;HPM_P2
2022/01/02 00:00:23;;;;;;;2.59;0.55;;;;;;;;;;358792;150;858676;-61
2022/01/02 00:01:24;;;;;;;1.11;0.50;;;;;;;;;;357768;148;858067;-62
2022/01/02 00:02:28;;;;;;;0.80;0.68;;;;;;;;;;359061;148;864812;-61
2022/01/02 00:03:30;;;;;;;1.62;0.92;;;;;;;;;;356819;149;857169;-61
2022/01/02 00:04:31;;;;;;;1.27;0.59;;;;;;;;;;359198;147;858846;-60
2022/01/02 00:05:33;;;;;;;1.22;0.69;;;;;;;;;;358623;147;857180;-61
2022/01/02 00:06:34;;;;;;;1.41;0.64;;;;;;;;;;352882;150;857862;-61
2022/01/02 00:07:44;;;;;;;0.64;0.60;;;;;;;;;;347297;152;856872;-60
2022/01/02 00:08:46;;;;;;;1.79;0.62;;;;;;;;;;353848;147;858547;-60
2022/01/02 00:09:49;;;;;;;0.57;0.45;;;;;;;;;;358911;147;857689;-60
2022/01/02 00:10:52;;;;;;;2.04;0.66;;;;;;;;;;358616;149;858889;-61
2022/01/02 00:11:54;;;;;;;1.18;0.47;;;;;;;;;;358789;148;864740;-61
2022/01/02 00:12:57;;;;;;;0.61;0.60;;;;;;;;;;358207;147;856261;-61
2022/01/02 00:14:08;;;;;;;1.55;0.69;;;;;;;;;;356546;149;857191;-60
2022/01/02 00:15:09;;;;;;;0.48;0.48;;;;;;;;;;359858;147;865243;-60
2022/01/02 00:16:15;;;;;;;0.61;0.48;;;;;;;;;;359981;147;856386;-60
2022/01/02 00:17:22;;;;;;;1.52;0.54;;;;;;;;;;358795;147;856691;-60
2022/01/02 00:18:20;;;;;;;0.41;0.41;;;;;;;;;;359477;148;856484;-60
2022/01/02 00:19:29;;;;;;;0.77;0.66;;;;;;;;;;359330;147;856714;-60
2022/01/02 00:20:32;;;;;;;0.41;0.41;;;;;;;;;;359842;148;862208;-60
2022/01/02 00:21:38;;;;;;;0.53;0.53;;;;;;;;;;357395;147;856496;-61
2022/01/02 00:22:40;;;;;;;0.72;0.53;;;;;;;;;;360099;148;856439;-61
2022/01/02 00:23:52;;;;;;;0.39;0.39;;;;;;;;;;359008;147;863652;-60
2022/01/02 00:24:45;;;;;;;0.46;0.46;;;;;;;;;;355367;150;856320;-61
2022/01/02 00:25:48;;;;;;;0.49;0.49;;;;;;;;;;359208;148;856373;-61
2022/01/02 00:26:51;;;;;;;1.04;0.47;;;;;;;;;;359972;147;856265;-61
2022/01/02 00:27:53;;;;;;;0.62;0.51;;;;;;;;;;359522;148;863528;-61
2022/01/02 00:28:54;;;;;;;0.54;0.50;;;;;;;;;;357667;148;856051;-61
2022/01/02 00:31:59;;;;;;;0.54;0.51;;;;;;;1.57;68.31;99977.41;372269;142;871012;-62
2022/01/02 00:33:01;;;;;;;0.73;0.63;;;;;;;1.38;68.05;99976.02;363845;147;857159;-63
2022/01/02 00:34:03;;;;;;;0.80;0.66;;;;;;;1.46;68.12;99988.17;362798;146;857281;-63
2022/01/02 00:35:05;;;;;;;0.83;0.60;;;;;;;1.53;67.83;99985.80;362142;147;860325;-62
2022/01/02 00:36:08;;;;;;;0.71;0.51;;;;;;;1.30;68.11;99984.31;363376;147;858656;-62
2022/01/02 00:37:10;;;;;;;0.59;0.46;;;;;;;1.46;67.81;99992.42;362640;146;857254;-62
2022/01/02 00:38:16;;;;;;;0.50;0.50;;;;;;;1.53;67.14;99991.78;361933;147;864968;-62
2022/01/02 00:39:18;;;;;;;0.97;0.61;;;;;;;1.35;65.97;99997.19;354347;150;865005;-61
2022/01/02 00:40:20;;;;;;;0.50;0.46;;;;;;;1.11;65.17;99979.47;362996;146;858499;-62
2022/01/02 00:41:28;;;;;;;1.06;0.50;;;;;;;1.11;65.51;99984.56;360873;146;857232;-63
2022/01/02 00:42:32;;;;;;;1.26;0.62;;;;;;;1.09;64.59;99983.66;361921;147;857295;-62
2022/01/02 00:43:35;;;;;;;0.89;0.70;;;;;;;;;;361001;146;858739;-62
2022/01/02 00:44:57;;;;;;;0.85;0.44;;;;;;;;;;361660;146;859831;-62
2022/01/02 00:45:59;;;;;;;0.66;0.53;;;;;;;;;;361818;147;860463;-62
2022/01/02 00:47:06;;;;;;;0.89;0.50;;;;;;;;;;362607;146;859054;-62
2022/01/02 00:48:13;;;;;;;0.58;0.58;;;;;;;;;;363291;146;866387;-62
2022/01/02 00:49:14;;;;;;;0.90;0.73;;;;;;;;;;360282;147;858775;-62
2022/01/02 00:50:24;;;;;;;0.55;0.54;;;;;;;;;;361225;146;859682;-62
2022/01/02 00:51:31;;;;;;;0.89;0.65;;;;;;;;;;360767;145;858700;-62
2022/01/02 00:52:37;;;;;;;0.85;0.70;;;;;;;;;;361213;145;858147;-62
2022/01/02 00:53:39;;;;;;;1.08;0.53;;;;;;;;;;355354;147;857960;-62
2022/01/02 00:54:42;;;;;;;0.50;0.50;;;;;;;;;;361981;146;860522;-62
2022/01/02 00:55:45;;;;;;;0.70;0.64;;;;;;;;;;362119;148;864869;-63
2022/01/02 00:56:47;;;;;;;1.06;0.71;;;;;;;;;;362966;148;860608;-62
2022/01/02 00:57:58;;;;;;;0.81;0.63;;;;;;;;;;360319;147;859372;-62
2022/01/02 00:59:03;;;;;;;0.74;0.65;;;;;;;;;;358958;147;866157;-62
2022/01/02 01:00:14;;;;;;;0.79;0.63;;;;;;;;;;360243;148;859128;-63
2022/01/02 01:01:16;;;;;;;0.61;0.61;;;;;;;;;;361018;147;857360;-63
2022/01/02 01:02:18;;;;;;;0.60;0.60;;;;;;;;;;361528;146;857380;-63
2022/01/02 01:03:21;;;;;;;0.61;0.60;;;;;;;;;;359266;148;863938;-62
2022/01/02 01:04:24;;;;;;;0.57;0.50;;;;;;;;;;358981;146;859269;-63
2022/01/02 01:05:27;;;;;;;0.53;0.50;;;;;;;;;;362009;146;856798;-62
2022/01/02 01:06:32;;;;;;;0.60;0.60;;;;;;;;;;360394;148;858836;-62
2022/01/02 01:07:33;;;;;;;0.51;0.51;;;;;;;;;;358810;147;857240;-62
2022/01/02 01:08:35;;;;;;;0.59;0.59;;;;;;;;;;361575;147;857630;-62
2022/01/02 01:09:36;;;;;;;0.52;0.52;;;;;;;;;;360318;147;866139;-62
2022/01/02 01:10:39;;;;;;;0.53;0.50;;;;;;;;;;361809;148;865606;-63
2022/01/02 01:11:40;;;;;;;0.86;0.60;;;;;;;;;;361125;147;859290;-62
2022/01/02 01:12:42;;;;;;;0.50;0.50;;;;;;;;;;360993;146;857408;-63
2022/01/02 01:13:44;;;;;;;0.73;0.65;;;;;;;;;;361398;148;866122;-62
2022/01/02 01:14:46;;;;;;;0.56;0.47;;;;;;;;;;359728;147;864807;-63
2022/01/02 01:15:48;;;;;;;0.53;0.48;;;;;;;;;;360319;147;857157;-63
2022/01/02 01:16:50;;;;;;;0.61;0.56;;;;;;;;;;360182;148;857309;-62
2022/01/02 01:17:55;;;;;;;0.54;0.48;;;;;;;;;;356858;147;864843;-63
2022/01/02 01:18:58;;;;;;;0.45;0.45;;;;;;;;;;359848;147;865304;-62
2022/01/02 01:19:59;;;;;;;0.55;0.55;;;;;;;;;;361344;148;857659;-62
2022/01/02 01:21:02;;;;;;;0.53;0.47;;;;;;;;;;359122;148;857296;-62
2022/01/02 01:22:03;;;;;;;0.63;0.51;;;;;;;;;;360805;147;864815;-62
2022/01/02 01:23:05;;;;;;;0.50;0.50;;;;;;;;;;360105;145;857201;-62
2022/01/02 01:24:07;;;;;;;0.39;0.39;;;;;;;;;;358548;148;857285;-62
2022/01/02 01:25:13;;;;;;;0.65;0.65;;;;;;;;;;361477;147;866099;-62
2022/01/02 01:26:16;;;;;;;0.71;0.58;;;;;;;;;;360867;147;859051;-63
2022/01/02 01:27:16;;;;;;;0.66;0.46;;;;;;;;;;361455;148;858159;-62
2022/01/02 01:28:18;;;;;;;0.56;0.55;;;;;;;;;;360202;148;860162;-64
2022/01/02 01:29:20;;;;;;;0.90;0.57;;;;;;;;;;361117;147;866355;-62
2022/01/02 01:30:22;;;;;;;0.55;0.50;;;;;;;;;;361900;146;859237;-62
2022/01/02 01:31:24;;;;;;;0.71;0.66;;;;;;;;;;357423;148;858757;-62
2022/01/02 01:32:26;;;;;;;0.74;0.55;;;;;;;;;;360860;147;865281;-62
2022/01/02 01:33:27;;;;;;;0.73;0.50;;;;;;;;;;360215;146;865453;-62
2022/01/02 01:34:29;;;;;;;5.51;0.71;;;;;;;;;;358650;148;858971;-62
2022/01/02 01:35:30;;;;;;;0.74;0.54;;;;;;;;;;359995;147;866132;-62
2022/01/02 01:36:32;;;;;;;1.07;0.61;;;;;;;;;;361951;147;866662;-62
2022/01/02 01:37:34;;;;;;;1.61;0.68;;;;;;;;;;359971;148;866680;-62
2022/01/02 01:38:35;;;;;;;0.71;0.60;;;;;;;;;;362824;147;858037;-62
2022/01/02 01:39:37;;;;;;;0.67;0.66;;;;;;;;;;353675;150;859821;-62
2022/01/02 01:40:40;;;;;;;1.21;0.63;;;;;;;;;;354839;149;856118;-63
2022/01/02 01:41:42;;;;;;;0.61;0.61;;;;;;;;;;358927;148;863781;-63
2022/01/02 01:42:55;;;;;;;0.82;0.68;;;;;;;;;;359332;147;866703;-63
2022/01/02 01:44:04;;;;;;;0.72;0.58;;;;;;;;;;360459;147;864864;-63
2022/01/02 01:45:28;;;;;;;0.75;0.56;;;;;;;;;;355175;148;857880;-63
2022/01/02 01:45:58;;;;;;;0.51;0.50;;;;;;;;;;357332;147;856686;-63
2022/01/02 01:46:59;;;;;;;0.86;0.81;;;;;;;;;;361776;147;856684;-63
2022/01/02 01:48:03;;;;;;;0.87;0.62;;;;;;;;;;357717;147;863561;-62
2022/01/02 01:49:20;;;;;;;1.54;0.55;;;;;;;;;;360720;148;856165;-63
2022/01/02 01:52:17;;;;;;;0.75;0.71;;;;;;;0.90;56.65;100053.58;373951;142;878839;-62
2022/01/02 01:53:19;;;;;;;0.77;0.66;;;;;;;1.00;56.33;100056.46;361013;147;858232;-61
2022/01/02 01:54:21;;;;;;;0.60;0.55;;;;;;;0.79;56.86;100059.19;364583;145;858382;-62
2022/01/02 01:55:23;;;;;;;1.09;0.60;;;;;;;0.94;56.67;100052.86;362591;147;857717;-62
2022/01/02 01:56:25;;;;;;;0.65;0.65;;;;;;;0.93;56.68;100069.83;364641;147;857216;-62
2022/01/02 01:57:26;;;;;;;0.69;0.40;;;;;;;0.99;56.83;100056.43;363359;145;857363;-62
2022/01/02 01:58:28;;;;;;;0.75;0.65;;;;;;;1.04;56.47;100064.21;362276;147;865273;-61
2022/01/02 01:59:31;;;;;;;0.61;0.50;;;;;;;0.93;56.39;100066.42;358339;148;857179;-62
2022/01/02 02:00:34;;;;;;;0.56;0.56;;;;;;;0.96;56.56;100066.53;358672;147;864785;-61
2022/01/02 02:01:35;;;;;;;0.48;0.48;;;;;;;1.00;56.29;100078.56;364604;145;864825;-61
2022/01/02 02:02:38;;;;;;;0.64;0.56;;;;;;;0.83;55.55;100062.69;363252;146;858007;-62
2022/01/02 02:03:39;;;;;;;0.46;0.43;;;;;;;0.35;56.99;100073.78;362851;146;857394;-60
2022/01/02 02:04:42;;;;;;;0.91;0.50;;;;;;;0.60;56.86;100072.97;364966;146;859106;-62
2022/01/02 02:05:44;;;;;;;0.47;0.47;;;;;;;0.70;56.40;100077.57;362779;146;857204;-61
2022/01/02 02:06:46;;;;;;;2.80;0.50;;;;;;;0.55;56.06;100079.59;364472;146;857271;-61
2022/01/02 02:07:47;;;;;;;0.59;0.59;;;;;;;0.45;54.75;100075.84;364606;146;857254;-61
2022/01/02 02:08:52;;;;;;;0.61;0.59;;;;;;;0.19;55.25;100070.69;363627;146;865670;-62
2022/01/02 02:10:12;;;;;;;0.61;0.56;;;;;;;0.33;55.58;100078.84;363862;146;859838;-61
2022/01/02 02:11:13;;;;;;;0.42;0.42;;;;;;;0.22;55.20;100075.05;357156;148;857791;-61
2022/01/02 02:12:15;;;;;;;0.47;0.47;;;;;;;0.21;56.15;100075.86;358271;149;859338;-62
2022/01/02 02:13:17;;;;;;;0.43;0.43;;;;;;;0.18;55.74;100084.23;357231;149;857960;-62
2022/01/02 02:14:18;;;;;;;0.56;0.56;;;;;;;0.36;55.33;100076.41;356750;149;856403;-62
2022/01/02 02:15:21;;;;;;;0.54;0.51;;;;;;;0.43;54.29;100085.11;357839;148;866602;-62
2022/01/02 02:16:23;;;;;;;0.79;0.60;;;;;;;0.49;54.19;100085.33;354960;149;858999;-61
2022/01/02 02:17:25;;;;;;;1.54;0.50;;;;;;;0.52;54.50;100085.44;357018;149;865972;-61
2022/01/02 02:18:26;;;;;;;0.56;0.51;;;;;;;0.17;54.30;100087.59;358427;148;858655;-60
2022/01/02 02:19:28;;;;;;;1.17;0.64;;;;;;;;;;358487;149;867022;-62
2022/01/02 02:20:30;;;;;;;0.60;0.60;;;;;;;;;;358103;149;865792;-62
2022/01/02 02:21:33;;;;;;;0.72;0.60;;;;;;;;;;358628;149;865715;-61
2022/01/02 02:22:40;;;;;;;0.66;0.66;;;;;;;;;;357242;148;858746;-61
2022/01/02 02:23:44;;;;;;;0.67;0.67;;;;;;;;;;356363;149;865784;-62
2022/01/02 02:24:46;;;;;;;0.61;0.58;;;;;;;;;;356970;149;857695;-62
2022/01/02 02:25:48;;;;;;;0.91;0.56;;;;;;;;;;358164;149;864819;-62
2022/01/02 02:26:49;;;;;;;1.37;0.63;;;;;;;;;;359607;149;864773;-62
2022/01/02 02:27:53;;;;;;;1.24;0.60;;;;;;;;;;359090;149;857364;-62
2022/01/02 02:28:55;;;;;;;0.56;0.54;;;;;;;;;;356561;148;866292;-61
2022/01/02 02:29:56;;;;;;;1.38;0.56;;;;;;;;;;358763;149;856065;-61
2022/01/02 02:30:58;;;;;;;0.83;0.57;;;;;;;;;;358939;149;866188;-61
2022/01/02 02:32:00;;;;;;;0.59;0.59;;;;;;;;;;357892;149;860678;-61
2022/01/02 02:33:02;;;;;;;0.51;0.51;;;;;;;;;;358225;148;865253;-61
2022/01/02 02:34:04;;;;;;;0.56;0.56;;;;;;;;;;356381;149;865471;-61
2022/01/02 02:35:06;;;;;;;0.69;0.61;;;;;;;;;;356392;149;857244;-61
2022/01/02 02:36:08;;;;;;;0.58;0.58;;;;;;;;;;357583;148;861236;-61
2022/01/02 02:37:10;;;;;;;0.55;0.55;;;;;;;;;;356354;149;857251;-61
2022/01/02 02:38:11;;;;;;;0.85;0.71;;;;;;;;;;357922;149;857454;-61
2022/01/02 02:39:13;;;;;;;0.59;0.59;;;;;;;;;;350327;152;859148;-61
2022/01/02 02:40:17;;;;;;;0.53;0.53;;;;;;;;;;358160;149;864929;-60
2022/01/02 02:41:18;;;;;;;0.60;0.60;;;;;;;;;;357350;149;857862;-60
2022/01/02 02:42:35;;;;;;;0.64;0.64;;;;;;;;;;357155;149;858741;-61
2022/01/02 02:44:37;;;;;;;0.76;0.65;;;;;;;;;;357090;148;857618;-61
2022/01/02 02:49:39;;;;;;;0.83;0.79;;;;;;;;;;355408;148;857424;-61
2022/01/02 02:50:45;;;;;;;0.70;0.70;;;;;;;;;;357738;148;857226;-61
2022/01/02 02:51:54;;;;;;;0.66;0.65;;;;;;;;;;356475;148;858559;-61
2022/01/02 02:52:55;;;;;;;1.28;0.72;;;;;;;;;;355474;148;857390;-61
2022/01/02 02:53:56;;;;;;;0.75;0.68;;;;;;;;;;350027;151;858906;-61
2022/01/02 02:54:58;;;;;;;0.70;0.70;;;;;;;;;;342627;153;857323;-62
2022/01/02 02:56:00;;;;;;;0.59;0.59;;;;;;;;;;347567;152;857229;-61
2022/01/02 02:57:10;;;;;;;1.03;0.71;;;;;;;;;;356540;148;859268;-61
2022/01/02 02:58:27;;;;;;;2.16;0.60;;;;;;;;;;355785;150;859304;-61
2022/01/02 02:59:09;;;;;;;0.74;0.70;;;;;;;;;;354439;150;858889;-61
2022/01/02 03:00:12;;;;;;;2.24;0.69;;;;;;;;;;356244;149;864885;-61
2022/01/02 03:01:15;;;;;;;0.65;0.65;;;;;;;;;;356599;149;859301;-61
2022/01/02 03:02:17;;;;;;;0.68;0.65;;;;;;;;;;357283;149;866263;-61
2022/01/02 03:03:18;;;;;;;1.14;0.64;;;;;;;;;;357524;149;856922;-61
2022/01/02 03:04:20;;;;;;;0.70;0.70;;;;;;;;;;355378;149;864825;-62
2022/01/02 03:05:22;;;;;;;0.84;0.71;;;;;;;;;;355962;149;857434;-61
2022/01/02 03:06:24;;;;;;;1.04;0.82;;;;;;;;;;355111;149;864758;-61
2022/01/02 03:07:25;;;;;;;0.57;0.56;;;;;;;;;;357432;148;857114;-61
2022/01/02 03:08:27;;;;;;;1.14;0.79;;;;;;;;;;357438;149;859368;-61
2022/01/02 03:09:39;;;;;;;1.86;0.88;;;;;;;;;;357310;149;864773;-61
2022/01/02 03:10:41;;;;;;;0.69;0.63;;;;;;;;;;357133;149;857638;-61
2022/01/02 03:11:42;;;;;;;0.61;0.61;;;;;;;;;;357805;149;857392;-61
2022/01/02 03:12:44;;;;;;;0.62;0.62;;;;;;;;;;357759;148;868283;-61
2022/01/02 03:13:46;;;;;;;0.68;0.68;;;;;;;;;;358161;148;857631;-61
2022/01/02 03:14:48;;;;;;;0.92;0.87;;;;;;;;;;356513;148;861718;-61
2022/01/02 03:15:50;;;;;;;1.20;0.70;;;;;;;;;;358126;149;857191;-63
2022/01/02 03:16:51;;;;;;;1.03;0.82;;;;;;;;;;356882;149;864766;-61
2022/01/02 03:17:53;;;;;;;1.03;0.80;;;;;;;;;;357417;148;857231;-60
2022/01/02 03:18:54;;;;;;;1.00;0.95;;;;;;;;;;357394;150;864893;-60
2022/01/02 03:19:56;;;;;;;0.81;0.80;;;;;;;;;;358750;149;857150;-62
2022/01/02 03:20:58;;;;;;;0.55;0.55;;;;;;;;;;357193;149;858582;-62
2022/01/02 03:21:59;;;;;;;0.59;0.59;;;;;;;;;;357834;148;857297;-60
2022/01/02 03:23:01;;;;;;;0.83;0.78;;;;;;;;;;359236;149;865759;-60
2022/01/02 03:24:03;;;;;;;1.38;0.71;;;;;;;;;;359256;149;864804;-61
2022/01/02 03:25:05;;;;;;;1.01;0.79;;;;;;;;;;358352;148;865766;-59
2022/01/02 03:26:07;;;;;;;1.23;0.81;;;;;;;;;;358798;150;857669;-61
2022/01/02 03:27:09;;;;;;;1.01;0.79;;;;;;;;;;357706;149;857434;-61
2022/01/02 03:28:10;;;;;;;2.44;0.69;;;;;;;;;;358059;149;859483;-61
2022/01/02 03:29:12;;;;;;;1.51;0.97;;;;;;;;;;355749;149;866922;-61
2022/01/02 03:30:15;;;;;;;1.11;0.77;;;;;;;;;;357397;149;866617;-61
2022/01/02 03:31:16;;;;;;;1.18;0.84;;;;;;;;;;358193;149;864881;-60
2022/01/02 03:32:18;;;;;;;0.94;0.84;;;;;;;;;;358079;148;858868;-60
2022/01/02 03:33:19;;;;;;;0.72;0.72;;;;;;;;;;357754;149;865733;-61
2022/01/02 03:34:22;;;;;;;0.77;0.61;;;;;;;;;;356449;149;864889;-62
2022/01/02 03:35:24;;;;;;;0.89;0.70;;;;;;;;;;358344;148;857528;-60
2022/01/02 03:36:26;;;;;;;0.95;0.80;;;;;;;;;;356966;149;857177;-60
2022/01/02 03:37:29;;;;;;;0.75;0.61;;;;;;;;;;356578;149;857654;-60
2022/01/02 03:38:30;;;;;;;0.81;0.73;;;;;;;;;;357343;149;856303;-61
2022/01/02 03:39:32;;;;;;;0.82;0.82;;;;;;;;;;356870;148;859485;-61
2022/01/02 03:40:34;;;;;;;0.91;0.81;;;;;;;;;;357244;149;864930;-61
2022/01/02 03:41:36;;;;;;;1.03;0.90;;;;;;;;;;356492;148;857876;-60
2022/01/02 03:42:38;;;;;;;0.89;0.72;;;;;;;;;;357414;149;866389;-61
2022/01/02 03:43:40;;;;;;;0.98;0.86;;;;;;;;;;351504;152;864988;-61
2022/01/02 03:44:42;;;;;;;1.01;0.61;;;;;;;;;;357218;149;858400;-62
2022/01/02 03:45:44;;;;;;;0.77;0.77;;;;;;;;;;351101;151;857265;-63
2022/01/02 03:46:45;;;;;;;0.81;0.70;;;;;;;;;;345875;152;859869;-60
2022/01/02 03:47:47;;;;;;;0.68;0.67;;;;;;;;;;357117;149;857163;-61
2022/01/02 03:48:49;;;;;;;1.04;0.83;;;;;;;;;;356414;150;857270;-61
2022/01/02 03:49:50;;;;;;;0.76;0.76;;;;;;;;;;356441;148;859077;-61
2022/01/02 03:50:52;;;;;;;0.76;0.75;;;;;;;;;;358269;150;859204;-61
2022/01/02 03:51:54;;;;;;;1.09;0.94;;;;;;;;;;345270;153;864947;-61
2022/01/02 03:52:56;;;;;;;0.87;0.82;;;;;;;;;;344884;151;856699;-61
2022/01/02 03:53:58;;;;;;;1.03;0.86;;;;;;;;;;357272;149;857190;-61
2022/01/02 03:54:59;;;;;;;0.77;0.70;;;;;;;;;;355582;149;865740;-62
2022/01/02 03:56:01;;;;;;;1.05;0.85;;;;;;;;;;356486;149;856615;-61
2022/01/02 03:57:03;;;;;;;1.09;0.73;;;;;;;;;;357053;148;856599;-61
2022/01/02 03:58:05;;;;;;;1.65;0.89;;;;;;;;;;350411;151;859099;-61
2022/01/02 03:59:08;;;;;;;0.60;0.60;;;;;;;;;;351284;152;860387;-61
2022/01/02 04:00:11;;;;;;;1.02;0.75;;;;;;;;;;357899;148;866739;-61
2022/01/02 04:01:13;;;;;;;1.29;0.89;;;;;;;;;;358652;149;857242;-61
2022/01/02 04:02:14;;;;;;;0.79;0.79;;;;;;;;;;356537;149;858667;-61
2022/01/02 04:03:16;;;;;;;0.86;0.80;;;;;;;;;;356619;148;863449;-62
2022/01/02 04:04:17;;;;;;;0.93;0.90;;;;;;;;;;357393;149;865922;-61
2022/01/02 04:05:19;;;;;;;0.87;0.76;;;;;;;;;;356772;150;859275;-61
2022/01/02 04:06:21;;;;;;;1.09;0.87;;;;;;;;;;359292;149;863343;-61
2022/01/02 04:07:23;;;;;;;1.38;0.85;;;;;;;;;;355923;148;865348;-61
2022/01/02 04:08:25;;;;;;;1.48;0.79;;;;;;;;;;356343;149;864870;-61
2022/01/02 04:09:27;;;;;;;0.97;0.92;;;;;;;;;;354897;150;866641;-61
2022/01/02 04:10:28;;;;;;;0.88;0.86;;;;;;;;;;351267;151;857472;-61
2022/01/02 04:11:30;;;;;;;1.23;0.98;;;;;;;;;;355853;149;866056;-61
2022/01/02 04:12:32;;;;;;;2.02;0.81;;;;;;;;;;357282;147;865280;-61
2022/01/02 04:13:33;;;;;;;0.95;0.84;;;;;;;;;;356914;147;864023;-61
2022/01/02 04:14:35;;;;;;;1.41;0.82;;;;;;;;;;356437;147;858699;-61
2022/01/02 04:15:37;;;;;;;0.98;0.93;;;;;;;;;;356519;149;864771;-60
2022/01/02 04:16:38;;;;;;;0.89;0.84;;;;;;;;;;357913;149;866596;-61
2022/01/02 04:17:40;;;;;;;0.96;0.80;;;;;;;;;;357515;148;864485;-62
2022/01/02 04:18:42;;;;;;;1.78;0.81;;;;;;;;;;358324;149;863692;-61
2022/01/02 04:19:43;;;;;;;0.98;0.79;;;;;;;;;;357502;149;857278;-61
2022/01/02 04:20:48;;;;;;;2.01;1.08;;;;;;;;;;357916;148;863745;-61
2022/01/02 04:21:49;;;;;;;1.98;0.66;;;;;;;;;;357354;149;856182;-61
2022/01/02 04:22:50;;;;;;;1.23;0.80;;;;;;;;;;359056;149;856081;-62
2022/01/02 04:23:52;;;;;;;0.82;0.73;;;;;;;;;;354747;149;856195;-61
2022/01/02 04:24:54;;;;;;;0.61;0.61;;;;;;;;;;357399;148;856119;-62
2022/01/02 04:25:55;;;;;;;1.39;0.85;;;;;;;;;;356749;149;858071;-61
2022/01/02 04:26:57;;;;;;;1.00;0.93;;;;;;;;;;357196;149;857487;-61
2022/01/02 04:27:59;;;;;;;1.34;0.80;;;;;;;;;;356216;148;865954;-61
2022/01/02 04:29:00;;;;;;;1.61;0.79;;;;;;;;;;356190;149;858653;-61
2022/01/02 04:30:03;;;;;;;0.96;0.89;;;;;;;;;;357099;149;859737;-61
2022/01/02 04:31:04;;;;;;;1.15;0.89;;;;;;;;;;357389;148;866598;-61
2022/01/02 04:32:06;;;;;;;1.43;0.96;;;;;;;;;;357598;149;863077;-61
2022/01/02 04:33:08;;;;;;;1.57;0.77;;;;;;;;;;356288;149;865997;-60
2022/01/02 04:34:10;;;;;;;1.06;0.75;;;;;;;;;;354317;149;857371;-60
2022/01/02 04:35:12;;;;;;;0.83;0.72;;;;;;;;;;358360;148;861965;-61
2022/01/02 04:36:14;;;;;;;1.21;1.11;;;;;;;;;;355641;149;856270;-61
2022/01/02 04:37:15;;;;;;;2.69;1.66;;;;;;;;;;358010;149;857278;-61
2022/01/02 04:38:17;;;;;;;1.53;0.93;;;;;;;;;;349107;151;866778;-61
2022/01/02 04:39:19;;;;;;;3.19;0.79;;;;;;;;;;351392;152;865156;-61
2022/01/02 04:41:46;;;;;;;1.12;0.77;;;;;;;;;;348889;150;856194;-61
2022/01/02 04:42:47;;;;;;;1.63;0.82;;;;;;;;;;350716;150;857241;-61
2022/01/02 04:43:49;;;;;;;0.74;0.74;;;;;;;;;;350795;150;863591;-61
2022/01/02 04:44:51;;;;;;;0.63;0.63;;;;;;;;;;348233;151;867066;-61
2022/01/02 04:45:52;;;;;;;1.19;0.95;;;;;;;;;;349812;150;867105;-62
2022/01/02 04:46:54;;;;;;;1.69;1.03;;;;;;;;;;352206;149;866193;-61
2022/01/02 04:47:55;;;;;;;1.42;0.73;;;;;;;;;;351876;149;859270;-61
2022/01/02 04:48:57;;;;;;;2.82;0.81;;;;;;;;;;349021;150;857000;-61
2022/01/02 04:49:59;;;;;;;1.41;1.05;;;;;;;;;;351878;151;860664;-61
2022/01/02 04:51:00;;;;;;;0.91;0.81;;;;;;;;;;345689;153;865683;-62
2022/01/02 04:52:02;;;;;;;0.85;0.79;;;;;;;;;;345278;153;859113;-61
2022/01/02 04:53:04;;;;;;;1.45;1.00;;;;;;;;;;345636;152;858280;-61
2022/01/02 04:54:05;;;;;;;0.90;0.89;;;;;;;;;;349058;152;864888;-61
2022/01/02 04:55:07;;;;;;;1.18;0.84;;;;;;;;;;345962;152;863651;-61
2022/01/02 04:56:09;;;;;;;0.89;0.79;;;;;;;;;;341710;155;866845;-61
2022/01/02 04:57:10;;;;;;;1.13;0.94;;;;;;;;;;339706;155;858536;-61
2022/01/02 04:58:12;;;;;;;2.41;0.92;;;;;;;;;;339282;155;858649;-61
2022/01/02 04:59:14;;;;;;;0.74;0.70;;;;;;;;;;341176;155;865028;-61
2022/01/02 05:00:16;;;;;;;1.29;0.80;;;;;;;;;;339864;155;857456;-61
2022/01/02 05:01:17;;;;;;;1.14;1.01;;;;;;;;;;344707;155;857396;-61
2022/01/02 05:02:19;;;;;;;0.90;0.90;;;;;;;;;;340575;157;864562;-61
2022/01/02 05:03:20;;;;;;;0.82;0.82;;;;;;;;;;338441;156;866095;-61
2022/01/02 05:04:22;;;;;;;1.04;0.88;;;;;;;;;;339081;157;860792;-61
2022/01/02 05:05:24;;;;;;;1.16;0.97;;;;;;;;;;342900;156;857302;-61
2022/01/02 05:06:25;;;;;;;2.64;0.74;;;;;;;;;;338539;156;861692;-58
2022/01/02 05:07:27;;;;;;;1.63;0.94;;;;;;;;;;344143;156;857305;-60
2022/01/02 05:08:28;;;;;;;0.83;0.83;;;;;;;;;;340779;155;859799;-60
2022/01/02 05:09:30;;;;;;;1.01;0.84;;;;;;;;;;342479;155;860672;-61
2022/01/02 05:10:32;;;;;;;1.03;0.82;;;;;;;;;;339972;155;867269;-61
2022/01/02 05:11:33;;;;;;;1.02;0.77;;;;;;;;;;341289;155;865674;-61
2022/01/02 05:12:35;;;;;;;1.11;0.90;;;;;;;;;;340359;155;856603;-61
2022/01/02 05:13:36;;;;;;;1.35;0.94;;;;;;;;;;341326;155;858475;-61
2022/01/02 05:14:38;;;;;;;1.14;0.97;;;;;;;;;;339620;157;866144;-61
2022/01/02 05:15:39;;;;;;;1.24;0.82;;;;;;;;;;342030;156;865883;-61
2022/01/02 05:16:41;;;;;;;1.93;1.03;;;;;;;;;;340869;155;858005;-61
2022/01/02 05:17:43;;;;;;;0.95;0.91;;;;;;;;;;342218;155;857353;-61
2022/01/02 05:18:45;;;;;;;1.49;1.15;;;;;;;;;;340722;155;865336;-61
2022/01/02 05:19:46;;;;;;;1.12;0.83;;;;;;;;;;341223;155;857275;-61
2022/01/02 05:20:48;;;;;;;1.89;0.99;;;;;;;;;;340104;155;865274;-61
2022/01/02 05:21:49;;;;;;;2.31;1.00;;;;;;;;;;338066;156;865655;-61
2022/01/02 05:22:51;;;;;;;2.19;1.06;;;;;;;;;;338809;156;858969;-61
2022/01/02 05:23:52;;;;;;;1.17;1.07;;;;;;;;;;339665;155;866375;-61
2022/01/02 05:24:54;;;;;;;1.71;0.89;;;;;;;;;;339802;156;857371;-62
2022/01/02 05:25:56;;;;;;;1.71;1.09;;;;;;;;;;339805;157;864412;-62
2022/01/02 05:26:57;;;;;;;1.48;1.25;;;;;;;;;;340156;157;861708;-61
2022/01/02 05:27:59;;;;;;;2.34;1.07;;;;;;;;;;340755;155;857297;-61
2022/01/02 05:29:01;;;;;;;1.29;1.17;;;;;;;;;;340473;155;859127;-61
2022/01/02 05:30:03;;;;;;;1.61;1.13;;;;;;;;;;339685;156;857258;-61
2022/01/02 05:31:04;;;;;;;1.34;1.00;;;;;;;;;;340415;155;865004;-60
2022/01/02 05:32:06;;;;;;;1.86;1.24;;;;;;;;;;339692;157;857981;-61
2022/01/02 05:33:08;;;;;;;2.42;1.36;;;;;;;;;;338527;155;864993;-60
2022/01/02 05:34:09;;;;;;;1.19;0.96;;;;;;;;;;341428;155;857815;-61
2022/01/02 05:35:11;;;;;;;1.63;1.20;;;;;;;;;;340505;155;867063;-62
2022/01/02 05:36:14;;;;;;;1.77;1.24;;;;;;;;;;339827;156;859241;-61
2022/01/02 05:37:16;;;;;;;1.31;1.09;;;;;;;;;;340326;155;856346;-61
2022/01/02 05:38:19;;;;;;;1.40;1.06;;;;;;;;;;341682;154;865375;-61
2022/01/02 05:39:21;;;;;;;0.96;0.88;;;;;;;;;;340952;155;863825;-61
2022/01/02 05:40:22;;;;;;;2.03;1.01;;;;;;;;;;339257;156;857280;-61
2022/01/02 05:41:27;;;;;;;1.27;1.17;;;;;;;;;;338643;156;856360;-61
2022/01/02 05:42:28;;;;;;;1.50;1.06;;;;;;;;;;338847;156;859057;-61
2022/01/02 05:43:30;;;;;;;1.14;0.85;;;;;;;;;;340615;156;858069;-61
2022/01/02 05:44:31;;;;;;;2.00;0.91;;;;;;;;;;334239;157;863828;-61
2022/01/02 05:45:33;;;;;;;2.25;0.87;;;;;;;;;;338517;155;856370;-61
2022/01/02 05:46:35;;;;;;;1.89;1.06;;;;;;;;;;346890;152;857631;-60
2022/01/02 05:47:38;;;;;;;0.90;0.81;;;;;;;;;;342566;152;863939;-60
2022/01/02 05:48:39;;;;;;;1.22;0.88;;;;;;;;;;343788;152;866739;-60
2022/01/02 05:49:41;;;;;;;1.49;0.99;;;;;;;;;;344665;152;858958;-61
2022/01/02 05:50:42;;;;;;;1.31;0.99;;;;;;;;;;344902;153;866096;-60
2022/01/02 05:51:44;;;;;;;1.60;1.14;;;;;;;;;;343662;153;856414;-61
2022/01/02 05:52:45;;;;;;;1.14;1.03;;;;;;;;;;344766;153;857439;-61
2022/01/02 05:53:47;;;;;;;1.10;1.00;;;;;;;;;;344055;154;857271;-61
2022/01/02 05:54:49;;;;;;;0.78;0.78;;;;;;;;;;343915;155;864844;-60
2022/01/02 05:55:50;;;;;;;1.13;0.85;;;;;;;;;;345377;153;859456;-60
2022/01/02 05:56:52;;;;;;;1.46;1.14;;;;;;;;;;343930;153;857402;-61
2022/01/02 05:57:53;;;;;;;1.45;1.12;;;;;;;;;;343759;154;866628;-61
2022/01/02 05:58:55;;;;;;;1.20;0.99;;;;;;;;;;343285;153;860962;-61
2022/01/02 05:59:56;;;;;;;1.59;1.16;;;;;;;;;;344357;154;857068;-62
2022/01/02 06:00:58;;;;;;;1.09;0.79;;;;;;;;;;344449;156;861869;-61
2022/01/02 06:02:00;;;;;;;1.19;0.86;;;;;;;;;;345172;152;864802;-61
2022/01/02 06:03:02;;;;;;;1.38;1.13;;;;;;;;;;347121;152;857305;-61
2022/01/02 06:04:03;;;;;;;1.33;0.90;;;;;;;;;;343753;154;857159;-62
2022/01/02 06:05:06;;;;;;;1.06;0.91;;;;;;;;;;343778;153;858014;-61
2022/01/02 06:06:08;;;;;;;0.94;0.87;;;;;;;;;;344810;152;866130;-61
2022/01/02 06:07:10;;;;;;;1.59;1.21;;;;;;;;;;340222;156;858918;-61
2022/01/02 06:08:12;;;;;;;1.22;0.99;;;;;;;;;;343818;155;865803;-62
2022/01/02 06:09:13;;;;;;;1.25;0.99;;;;;;;;;;345942;152;865944;-61